Time;durP1;ratioP1;P1;durP2;ratioP2;P2;SDS_P1;SDS_P2;PMS_P1;PMS_P2;Temp;Humidity;BMP_temperature;BMP_pressure;BME280_temperature;BME280_humidity;BME280_pressure;Samples;Min_cycle;Max_cycle;Signal;HPM_P1;HPM_P2
2023/07/24 00:01:10;;;;;;;15.43;9.10;;;17.50;99.90;;;;;;5136160;27;20043;-77
2023/07/24 00:03:35;;;;;;;13.97;8.20;;;17.40;99.90;;;;;;5137886;27;20043;-67
2023/07/24 00:06:01;;;;;;;14.80;8.17;;;17.40;99.90;;;;;;5137826;27;20458;-68
2023/07/24 00:08:27;;;;;;;15.70;8.50;;;17.40;99.90;;;;;;5102729;27;20043;-68
2023/07/24 00:10:53;;;;;;;13.37;8.40;;;17.30;99.90;;;;;;5138022;27;20279;-67
2023/07/24 00:13:18;;;;;;;14.43;9.20;;;17.20;99.90;;;;;;5137675;27;20043;-68
2023/07/24 00:15:44;;;;;;;15.50;9.20;;;17.10;99.90;;;;;;5102491;27;20490;-68
2023/07/24 00:18:10;;;;;;;13.67;8.17;;;17.10;99.90;;;;;;5137640;27;20043;-68
2023/07/24 00:20:36;;;;;;;15.50;9.13;;;17.00;99.90;;;;;;5119934;27;20134;-69
2023/07/24 00:23:01;;;;;;;14.47;8.50;;;17.00;99.90;;;;;;5136633;27;20149;-67
2023/07/24 00:25:27;;;;;;;14.98;8.40;;;16.90;99.90;;;;;;5137348;27;20125;-68
2023/07/24 00:27:53;;;;;;;14.17;9.37;;;16.90;99.90;;;;;;5102220;27;20391;-69
2023/07/24 00:30:18;;;;;;;15.00;8.63;;;16.80;99.90;;;;;;5137258;27;20049;-68
2023/07/24 00:32:44;;;;;;;15.13;9.20;;;16.70;99.90;;;;;;5119124;27;20130;-68
2023/07/24 00:35:10;;;;;;;16.53;9.23;;;16.70;99.90;;;;;;5137369;27;20039;-67
2023/07/24 00:37:35;;;;;;;15.57;9.13;;;16.70;99.90;;;;;;5119343;27;20047;-68
2023/07/24 00:40:02;;;;;;;12.73;8.30;;;16.70;99.90;;;;;;5118869;27;20387;-68
2023/07/24 00:42:28;;;;;;;15.10;8.95;;;16.70;99.90;;;;;;5137114;27;20046;-68
2023/07/24 00:44:54;;;;;;;17.23;8.70;;;16.60;99.90;;;;;;5137658;27;20405;-67
2023/07/24 00:47:19;;;;;;;15.57;9.00;;;16.60;99.90;;;;;;5118706;27;20051;-69
2023/07/24 00:49:46;;;;;;;16.30;9.00;;;16.60;99.90;;;;;;5137589;27;20039;-68
2023/07/24 00:52:12;;;;;;;15.40;8.10;;;16.50;99.90;;;;;;5119261;27;20054;-68
2023/07/24 00:54:38;;;;;;;13.98;7.93;;;16.50;99.90;;;;;;5118651;27;20043;-67
2023/07/24 00:57:05;;;;;;;14.02;8.20;;;16.50;99.90;;;;;;5136940;27;20043;-69
2023/07/24 00:59:31;;;;;;;14.80;8.00;;;16.40;99.90;;;;;;5136393;27;20062;-68
2023/07/24 01:01:57;;;;;;;13.80;8.23;;;16.40;99.90;;;;;;5118429;27;20108;-68
2023/07/24 01:04:23;;;;;;;11.73;7.22;;;16.40;99.90;;;;;;5152698;27;20092;-67
2023/07/24 01:06:49;;;;;;;16.60;7.20;;;16.40;99.90;;;;;;5118362;27;20050;-68
2023/07/24 01:09:15;;;;;;;13.03;7.10;;;16.40;99.90;;;;;;5118311;27;20122;-67
2023/07/24 01:11:56;;;;;;;14.80;7.55;;;16.30;99.90;;;;;;5136404;27;20461;-67
2023/07/24 01:14:46;;;;;;;13.65;7.32;;;16.40;99.90;;;;;;5136458;27;20095;-68
2023/07/24 01:17:18;;;;;;;12.98;7.43;;;16.30;99.90;;;;;;5136804;27;20103;-66
2023/07/24 01:19:50;;;;;;;13.43;7.18;;;16.30;99.90;;;;;;5136653;27;20093;-67
2023/07/24 01:22:38;;;;;;;12.73;7.25;;;16.30;99.90;;;;;;5118732;27;20518;-67
2023/07/24 01:25:31;;;;;;;11.27;6.63;;;16.40;99.90;;;;;;5136234;27;20086;-67
2023/07/24 01:27:57;;;;;;;11.48;6.68;;;16.40;99.90;;;;;;5118248;27;20043;-69
2023/07/24 01:30:23;;;;;;;13.18;6.78;;;16.50;99.90;;;;;;5136095;27;20366;-68
2023/07/24 01:32:49;;;;;;;12.77;6.47;;;16.50;99.90;;;;;;5136247;27;20081;-67
2023/07/24 01:35:15;;;;;;;12.25;6.88;;;16.50;99.90;;;;;;5136063;27;20043;-67
2023/07/24 01:37:42;;;;;;;13.48;6.50;;;16.50;99.90;;;;;;5117644;27;20087;-67
2023/07/24 01:40:10;;;;;;;14.07;7.38;;;16.50;99.90;;;;;;5135975;27;20048;-66
2023/07/24 01:42:36;;;;;;;12.32;7.00;;;16.40;99.90;;;;;;5117505;27;20077;-70
2023/07/24 01:45:04;;;;;;;14.40;7.10;;;16.40;99.90;;;;;;5135761;27;20039;-67
2023/07/24 01:47:29;;;;;;;12.07;6.45;;;16.30;99.90;;;;;;5117395;27;20047;-66
2023/07/24 01:49:56;;;;;;;12.38;6.60;;;16.30;99.90;;;;;;5135842;27;20050;-66
2023/07/24 01:52:22;;;;;;;12.23;6.35;;;16.30;99.90;;;;;;5117378;27;20053;-67
2023/07/24 01:54:48;;;;;;;12.60;6.73;;;16.30;99.90;;;;;;5100508;27;20054;-67
2023/07/24 01:57:14;;;;;;;11.77;6.70;;;16.20;99.90;;;;;;5151963;27;20046;-67
2023/07/24 01:59:39;;;;;;;11.23;6.30;;;16.10;99.90;;;;;;5117247;27;20116;-67
2023/07/24 02:02:05;;;;;;;13.55;6.22;;;16.20;99.90;;;;;;5135521;27;20082;-68
2023/07/24 02:04:31;;;;;;;11.97;6.60;;;16.10;99.90;;;;;;5117180;27;20068;-68
2023/07/24 02:06:57;;;;;;;10.98;6.55;;;16.10;99.90;;;;;;5135490;27;20047;-69
2023/07/24 02:09:22;;;;;;;12.25;5.85;;;16.00;99.90;;;;;;5135375;27;20043;-68
2023/07/24 02:11:48;;;;;;;13.13;5.47;;;16.00;99.90;;;;;;5117194;27;20039;-68
2023/07/24 02:14:16;;;;;;;12.73;6.30;;;16.00;99.90;;;;;;5135331;27;20047;-68
2023/07/24 02:16:42;;;;;;;12.00;6.40;;;16.00;99.90;;;;;;5135673;27;20043;-67
2023/07/24 02:19:08;;;;;;;12.35;6.30;;;16.00;99.90;;;;;;5116799;27;20043;-67
2023/07/24 02:21:33;;;;;;;14.40;6.70;;;16.00;99.90;;;;;;5116999;27;20035;-67
2023/07/24 02:23:59;;;;;;;11.63;6.43;;;16.00;99.90;;;;;;5134629;27;20133;-68
2023/07/24 02:26:25;;;;;;;14.10;6.60;;;16.10;99.90;;;;;;5134946;27;20105;-68
2023/07/24 02:28:51;;;;;;;13.93;6.55;;;16.10;99.90;;;;;;5117454;27;20039;-67
2023/07/24 02:31:16;;;;;;;20.13;6.60;;;16.20;99.90;;;;;;5135469;27;20364;-67
2023/07/24 02:33:42;;;;;;;13.37;7.13;;;16.20;99.90;;;;;;5135184;27;20378;-68
2023/07/24 02:36:08;;;;;;;12.93;6.30;;;16.20;99.90;;;;;;5116844;27;20050;-69
2023/07/24 02:38:34;;;;;;;13.88;6.15;;;16.30;99.90;;;;;;5099310;27;20070;-69
2023/07/24 02:40:59;;;;;;;12.25;6.68;;;16.40;99.90;;;;;;5134911;27;20051;-68
2023/07/24 02:43:25;;;;;;;12.98;6.88;;;16.40;99.90;;;;;;5116414;27;20047;-71
2023/07/24 02:45:51;;;;;;;12.60;6.68;;;16.40;99.90;;;;;;5134527;27;20042;-68
2023/07/24 02:48:17;;;;;;;13.18;6.43;;;16.40;99.90;;;;;;5135011;27;20047;-67
2023/07/24 02:50:42;;;;;;;11.93;6.43;;;16.40;99.90;;;;;;5099491;27;20390;-67
2023/07/24 02:53:08;;;;;;;12.57;6.45;;;16.50;99.90;;;;;;5116692;27;20100;-67
2023/07/24 02:55:34;;;;;;;12.32;6.43;;;16.50;99.90;;;;;;5134580;27;20475;-68
2023/07/24 02:57:59;;;;;;;11.43;5.93;;;16.50;99.90;;;;;;5116319;27;20509;-67
2023/07/24 03:00:25;;;;;;;12.67;6.77;;;16.50;99.90;;;;;;5115635;27;20057;-68
2023/07/24 03:02:52;;;;;;;10.93;6.27;;;16.50;99.90;;;;;;5134492;27;20047;-68
2023/07/24 03:05:18;;;;;;;11.57;6.57;;;16.60;99.90;;;;;;5135178;27;20083;-68
2023/07/24 03:07:43;;;;;;;11.70;6.80;;;16.60;99.90;;;;;;5134524;27;20082;-66
2023/07/24 03:10:09;;;;;;;11.93;6.35;;;16.60;99.90;;;;;;5150510;27;20568;-67
2023/07/24 03:12:35;;;;;;;13.20;6.28;;;16.70;99.90;;;;;;5115981;28;20051;-71
2023/07/24 03:15:01;;;;;;;11.68;6.57;;;16.70;99.90;;;;;;5134487;28;20039;-68
2023/07/24 03:17:27;;;;;;;14.32;6.63;;;16.70;99.90;;;;;;5134161;28;20487;-68
2023/07/24 03:19:54;;;;;;;11.80;7.00;;;16.70;99.90;;;;;;5116127;28;20555;-68
2023/07/24 03:22:20;;;;;;;13.68;7.05;;;16.70;99.90;;;;;;5099487;28;20104;-67
2023/07/24 03:24:45;;;;;;;11.55;6.43;;;16.70;99.90;;;;;;5098854;28;20129;-68
2023/07/24 03:27:11;;;;;;;12.13;7.13;;;16.80;99.90;;;;;;5116165;28;20082;-68
2023/07/24 03:29:37;;;;;;;15.13;7.17;;;16.70;99.90;;;;;;5116446;28;20356;-71
2023/07/24 03:32:03;;;;;;;13.48;7.05;;;16.70;99.90;;;;;;5134184;28;20059;-68
2023/07/24 03:34:29;;;;;;;12.40;7.03;;;16.70;99.90;;;;;;5135396;27;20051;-68
2023/07/24 03:36:55;;;;;;;10.80;6.75;;;16.70;99.90;;;;;;5119938;27;20047;-68
2023/07/24 03:39:20;;;;;;;15.30;7.67;;;16.80;99.90;;;;;;5138392;27;20043;-67
2023/07/24 03:41:46;;;;;;;12.73;7.27;;;16.80;99.90;;;;;;5138864;27;20099;-68
2023/07/24 03:44:12;;;;;;;15.33;7.97;;;16.80;99.90;;;;;;5154197;27;20466;-67
2023/07/24 03:46:37;;;;;;;14.00;7.57;;;16.70;99.90;;;;;;5120017;27;20100;-67
2023/07/24 03:49:03;;;;;;;15.35;7.35;;;16.70;99.90;;;;;;5138081;27;20055;-68
2023/07/24 03:51:29;;;;;;;13.07;7.65;;;16.70;99.90;;;;;;5154881;27;20068;-68
2023/07/24 03:53:54;;;;;;;14.60;7.97;;;16.60;99.90;;;;;;5154099;27;20099;-68
2023/07/24 03:56:20;;;;;;;14.13;8.63;;;16.60;99.90;;;;;;5119807;27;20054;-68
2023/07/24 03:58:46;;;;;;;14.07;8.07;;;16.60;99.90;;;;;;5119492;27;20387;-68
2023/07/24 04:01:11;;;;;;;21.20;8.73;;;16.60;99.90;;;;;;5138742;27;20127;-69
2023/07/24 04:03:37;;;;;;;16.67;8.80;;;16.60;99.90;;;;;;5102534;27;20559;-68
2023/07/24 04:06:03;;;;;;;13.73;8.30;;;16.60;99.90;;;;;;5136520;27;20088;-68
2023/07/24 04:08:29;;;;;;;16.30;7.95;;;16.60;99.90;;;;;;5137818;27;20047;-66
2023/07/24 04:10:56;;;;;;;15.55;7.82;;;16.60;99.90;;;;;;5154050;27;20570;-66
2023/07/24 04:13:21;;;;;;;;;;;16.60;99.90;;;;;;5120263;27;20109;-68
2023/07/24 04:15:47;;;;;;;17.57;8.00;;;16.60;99.90;;;;;;5119315;27;19989;-68
2023/07/24 04:18:13;;;;;;;13.32;8.00;;;16.60;99.90;;;;;;5138145;27;20681;-67
2023/07/24 04:20:39;;;;;;;14.18;8.13;;;16.60;99.90;;;;;;5102421;27;20047;-68
2023/07/24 04:23:04;;;;;;;13.07;7.70;;;16.60;99.90;;;;;;5118991;27;20130;-67
2023/07/24 04:25:30;;;;;;;14.30;8.20;;;16.60;99.90;;;;;;5137431;27;20050;-68
2023/07/24 04:27:56;;;;;;;15.75;8.48;;;16.60;99.90;;;;;;5137455;27;20475;-69
2023/07/24 04:30:21;;;;;;;14.32;8.07;;;16.60;99.90;;;;;;5137490;27;20097;-67
2023/07/24 04:32:47;;;;;;;15.40;8.67;;;16.60;99.90;;;;;;5137789;27;20096;-68
2023/07/24 04:35:13;;;;;;;15.40;8.18;;;16.60;99.90;;;;;;5136017;27;20134;-68
2023/07/24 04:37:38;;;;;;;14.85;8.05;;;16.60;99.90;;;;;;5137177;27;20158;-68
2023/07/24 04:40:05;;;;;;;16.67;8.63;;;16.60;99.90;;;;;;5119483;27;20043;-68
2023/07/24 04:42:31;;;;;;;16.67;8.70;;;16.60;99.90;;;;;;5119222;27;20082;-68
2023/07/24 04:44:57;;;;;;;14.37;8.33;;;16.60;99.90;;;;;;5118771;27;20055;-69
2023/07/24 04:47:22;;;;;;;18.27;8.47;;;16.60;99.90;;;;;;5084827;27;20055;-68
2023/07/24 04:49:48;;;;;;;17.33;8.98;;;16.60;99.90;;;;;;5119209;27;20047;-70
2023/07/24 04:52:14;;;;;;;16.57;8.23;;;16.60;99.90;;;;;;5119200;27;20043;-68
2023/07/24 04:54:39;;;;;;;15.97;7.70;;;16.60;99.90;;;;;;5101638;27;20043;-70
2023/07/24 04:57:05;;;;;;;17.20;8.48;;;16.60;99.90;;;;;;5118716;27;20043;-68
2023/07/24 04:59:31;;;;;;;14.03;8.30;;;16.60;99.90;;;;;;5137553;27;20447;-69
2023/07/24 05:01:57;;;;;;;14.35;8.10;;;16.60;99.90;;;;;;5152966;27;20043;-69
2023/07/24 05:04:22;;;;;;;15.07;7.97;;;16.60;99.90;;;;;;5136584;27;20043;-68
2023/07/24 05:06:48;;;;;;;13.68;8.05;;;16.60;99.90;;;;;;5118321;27;20313;-68
2023/07/24 05:09:14;;;;;;;17.77;7.95;;;16.60;99.90;;;;;;5118419;27;20043;-67
2023/07/24 05:11:41;;;;;;;17.53;9.17;;;16.60;99.90;;;;;;5118361;27;20425;-69
2023/07/24 05:14:07;;;;;;;16.55;8.90;;;16.60;99.90;;;;;;5100943;27;20324;-68
2023/07/24 05:16:33;;;;;;;16.80;9.00;;;16.60;99.90;;;;;;5118069;27;20082;-67
2023/07/24 05:18:59;;;;;;;13.77;8.20;;;16.70;99.90;;;;;;5135908;27;20050;-67
2023/07/24 05:21:24;;;;;;;13.98;8.27;;;16.70;99.90;;;;;;5118452;27;20083;-68
2023/07/24 05:23:50;;;;;;;14.68;8.45;;;16.70;99.90;;;;;;5136317;27;20047;-67
2023/07/24 05:26:16;;;;;;;15.02;8.10;;;16.80;99.90;;;;;;5136646;27;20078;-67
2023/07/24 05:28:41;;;;;;;15.20;8.00;;;16.90;99.90;;;;;;5136977;27;20058;-69
2023/07/24 05:31:08;;;;;;;13.75;7.60;;;17.00;99.90;;;;;;5117914;27;20340;-68
2023/07/24 05:33:33;;;;;;;13.07;8.40;;;17.00;99.90;;;;;;5136020;27;20046;-67
2023/07/24 05:36:00;;;;;;;14.77;7.65;;;17.10;99.90;;;;;;5135930;27;20039;-68
2023/07/24 05:38:26;;;;;;;13.60;7.78;;;17.20;99.90;;;;;;5134915;27;20100;-67
2023/07/24 05:40:59;;;;;;;12.65;7.85;;;17.30;99.90;;;;;;5135826;27;20046;-68
2023/07/24 05:43:25;;;;;;;14.80;8.35;;;17.40;99.90;;;;;;5117675;27;20040;-68
2023/07/24 05:45:51;;;;;;;14.02;8.38;;;17.40;99.90;;;;;;5135615;27;20039;-68
2023/07/24 05:48:18;;;;;;;14.50;8.00;;;17.50;99.90;;;;;;5135700;27;20387;-67
2023/07/24 05:50:43;;;;;;;15.50;8.43;;;17.50;99.90;;;;;;5135700;27;20368;-69
2023/07/24 05:53:09;;;;;;;13.83;8.43;;;17.50;99.90;;;;;;5117219;27;20061;-69
2023/07/24 05:55:35;;;;;;;16.67;8.33;;;17.50;99.90;;;;;;5135697;27;20043;-69
2023/07/24 05:58:00;;;;;;;14.47;7.83;;;17.50;99.90;;;;;;5099663;27;20090;-70
2023/07/24 06:00:27;;;;;;;15.63;8.32;;;17.50;99.90;;;;;;5112789;28;20059;-68
2023/07/24 06:02:54;;;;;;;14.20;8.87;;;17.40;99.90;;;;;;5113999;28;20058;-68
2023/07/24 06:05:20;;;;;;;17.00;9.13;;;17.40;99.90;;;;;;5113496;28;20120;-68
2023/07/24 06:07:48;;;;;;;14.80;7.70;;;17.30;99.90;;;;;;5114944;28;20054;-69
2023/07/24 06:10:14;;;;;;;14.95;8.57;;;17.30;99.90;;;;;;5114580;28;20130;-68
2023/07/24 06:12:40;;;;;;;12.50;7.37;;;17.30;99.90;;;;;;5113787;28;20130;-67
2023/07/24 06:15:06;;;;;;;13.93;7.63;;;17.30;99.90;;;;;;5114983;28;20092;-68
2023/07/24 06:17:33;;;;;;;13.32;8.07;;;17.30;99.90;;;;;;5114689;28;20094;-69
2023/07/24 06:19:59;;;;;;;14.45;8.05;;;17.20;99.90;;;;;;5113648;28;20040;-69
2023/07/24 06:22:25;;;;;;;19.20;8.38;;;17.20;99.90;;;;;;5096442;28;20054;-67
2023/07/24 06:24:50;;;;;;;15.50;7.83;;;17.30;99.90;;;;;;5114432;28;20047;-68
2023/07/24 06:27:19;;;;;;;15.48;8.07;;;17.40;99.90;;;;;;5114683;28;20070;-68
2023/07/24 06:29:45;;;;;;;14.50;7.97;;;17.50;99.90;;;;;;5114417;28;20395;-68
2023/07/24 06:32:10;;;;;;;14.13;8.40;;;17.50;99.90;;;;;;5113513;28;20059;-68
2023/07/24 06:34:36;;;;;;;14.20;8.40;;;17.60;99.90;;;;;;5113177;28;20066;-68
2023/07/24 06:37:02;;;;;;;15.30;8.97;;;17.70;99.90;;;;;;5114352;28;20138;-72
2023/07/24 06:39:30;;;;;;;13.53;8.30;;;17.60;99.90;;;;;;5114328;28;20043;-68
2023/07/24 06:41:56;;;;;;;16.65;9.43;;;17.70;99.90;;;;;;5114301;28;20048;-68
2023/07/24 06:44:22;;;;;;;15.47;8.27;;;17.70;99.90;;;;;;5112932;28;20095;-69
2023/07/24 06:46:48;;;;;;;15.20;8.43;;;17.80;99.90;;;;;;5114747;28;20048;-69
2023/07/24 06:49:13;;;;;;;14.73;8.20;;;18.00;99.90;;;;;;5114154;28;20475;-68
2023/07/24 06:51:39;;;;;;;14.53;8.27;;;18.10;99.90;;;;;;5112910;28;20134;-67
2023/07/24 06:54:05;;;;;;;13.97;7.93;;;18.10;99.90;;;;;;5113302;28;20048;-68
2023/07/24 06:56:32;;;;;;;14.68;8.00;;;18.30;99.90;;;;;;5113073;28;20463;-69
2023/07/24 06:58:58;;;;;;;13.98;8.00;;;18.40;99.90;;;;;;5114671;27;20056;-69
2023/07/24 07:01:24;;;;;;;15.97;8.27;;;18.70;99.90;;;;;;5134549;27;20046;-67
2023/07/24 07:03:49;;;;;;;15.43;7.83;;;18.80;99.90;;;;;;5116481;27;20375;-67
2023/07/24 07:06:15;;;;;;;17.70;7.63;;;19.10;99.90;;;;;;5150492;27;20043;-68
2023/07/24 07:08:41;;;;;;;16.57;7.50;;;19.30;99.90;;;;;;5134455;27;20055;-69
2023/07/24 07:11:07;;;;;;;18.43;8.30;;;19.50;99.90;;;;;;5135196;27;20276;-69
2023/07/24 07:13:32;;;;;;;13.87;7.93;;;19.70;99.90;;;;;;5134497;27;20039;-68
2023/07/24 07:15:58;;;;;;;14.47;7.40;;;19.70;99.90;;;;;;5099133;28;20376;-69
2023/07/24 07:18:24;;;;;;;17.43;8.30;;;19.70;99.90;;;;;;5134890;28;20039;-68
2023/07/24 07:20:51;;;;;;;17.33;8.10;;;19.70;99.90;;;;;;5134371;28;20050;-69
2023/07/24 07:23:17;;;;;;;16.05;7.35;;;19.70;99.90;;;;;;5116960;28;20122;-67
2023/07/24 07:25:45;;;;;;;15.13;7.68;;;19.90;99.90;;;;;;5150308;27;20058;-68
2023/07/24 07:28:15;;;;;;;17.00;8.30;;;20.00;99.90;;;;;;5115890;28;20100;-68
2023/07/24 07:30:41;;;;;;;15.35;8.18;;;20.00;99.90;;;;;;5134557;28;20051;-68
2023/07/24 07:33:07;;;;;;;14.48;8.00;;;20.00;99.90;;;;;;5116549;28;20039;-69
2023/07/24 07:35:33;;;;;;;12.57;7.60;;;20.10;99.90;;;;;;5134169;28;20043;-68
2023/07/24 07:38:00;;;;;;;14.23;7.75;;;20.20;99.90;;;;;;5134681;28;20395;-69
2023/07/24 07:40:26;;;;;;;15.43;8.07;;;20.30;99.90;;;;;;5134014;28;20043;-68
2023/07/24 07:42:53;;;;;;;;;;;20.30;99.90;;;;;;5134660;28;20091;-69
2023/07/24 07:45:18;;;;;;;15.23;6.60;;;20.20;99.90;;;;;;5134749;28;19920;-69
2023/07/24 07:47:44;;;;;;;14.30;6.63;;;20.20;99.90;;;;;;5134116;28;20500;-69
2023/07/24 07:50:10;;;;;;;11.43;6.03;;;20.20;99.90;;;;;;5115584;28;20513;-67
2023/07/24 07:52:36;;;;;;;19.80;7.75;;;20.10;99.90;;;;;;5134806;28;20047;-69
2023/07/24 07:55:02;;;;;;;15.17;7.77;;;20.10;99.90;;;;;;5134590;28;20524;-70
2023/07/24 07:57:28;;;;;;;14.73;8.10;;;20.10;99.90;;;;;;5134179;28;20058;-70
2023/07/24 07:59:54;;;;;;;15.10;7.47;;;20.00;99.90;;;;;;5115844;28;20055;-69
2023/07/24 08:02:19;;;;;;;18.80;6.37;;;20.00;99.90;;;;;;5133894;28;20043;-68
2023/07/24 08:04:45;;;;;;;16.27;7.17;;;19.90;99.90;;;;;;5115255;28;20035;-69
2023/07/24 08:07:11;;;;;;;15.90;6.10;;;19.90;99.90;;;;;;5150497;27;20130;-69
2023/07/24 08:09:38;;;;;;;15.87;6.17;;;20.10;99.90;;;;;;5134347;28;20375;-69
2023/07/24 08:12:04;;;;;;;;;;;20.10;99.90;;;;;;5099274;28;20047;-69
2023/07/24 08:14:30;;;;;;;14.05;6.68;;;20.10;99.90;;;;;;5115529;28;20014;-69
2023/07/24 08:16:56;;;;;;;13.65;6.05;;;20.10;99.90;;;;;;5133875;28;20043;-67
2023/07/24 08:19:21;;;;;;;14.83;6.93;;;20.20;99.90;;;;;;5115980;28;20043;-69
2023/07/24 08:21:47;;;;;;;11.93;6.23;;;20.30;99.90;;;;;;5136552;27;20039;-70
2023/07/24 08:24:13;;;;;;;15.10;6.50;;;20.50;99.90;;;;;;5137621;27;20130;-68
2023/07/24 08:26:39;;;;;;;14.63;6.70;;;20.60;99.90;;;;;;5119073;27;20055;-69
2023/07/24 08:29:05;;;;;;;14.87;6.73;;;20.90;99.90;;;;;;5137998;27;20054;-71
2023/07/24 08:31:31;;;;;;;11.38;5.93;;;21.00;99.90;;;;;;5119896;27;20043;-69
2023/07/24 08:33:57;;;;;;;16.93;7.17;;;21.10;99.90;;;;;;5137541;27;20153;-70
2023/07/24 08:36:23;;;;;;;14.17;6.93;;;21.30;99.90;;;;;;5137587;27;20043;-69
2023/07/24 08:38:48;;;;;;;12.77;6.80;;;21.30;99.90;;;;;;5119186;27;20039;-69
2023/07/24 08:41:14;;;;;;;11.67;6.80;;;21.30;99.90;;;;;;5153990;27;20039;-69
2023/07/24 08:43:42;;;;;;;13.95;6.30;;;21.10;99.90;;;;;;5119436;27;20047;-69
2023/07/24 08:46:08;;;;;;;13.23;6.78;;;21.10;99.90;;;;;;5118928;27;20118;-69
2023/07/24 08:48:40;;;;;;;12.35;6.07;;;21.20;99.90;;;;;;5118833;27;20116;-69
2023/07/24 08:51:11;;;;;;;12.27;6.53;;;21.20;99.90;;;;;;5119062;27;20047;-69
2023/07/24 08:53:40;;;;;;;13.85;7.15;;;21.20;99.90;;;;;;5102098;27;20043;-71
2023/07/24 08:56:09;;;;;;;14.88;7.57;;;21.30;99.90;;;;;;5137097;27;20047;-68
2023/07/24 08:58:35;;;;;;;15.88;6.72;;;21.50;99.90;;;;;;5136916;27;20082;-69
2023/07/24 09:01:02;;;;;;;11.50;5.43;;;21.70;99.90;;;;;;5138146;27;20055;-69
2023/07/24 09:03:29;;;;;;;11.85;6.30;;;21.90;99.90;;;;;;5119316;27;20043;-70
2023/07/24 09:05:55;;;;;;;11.30;5.93;;;22.00;99.90;;;;;;5118506;27;20047;-69
2023/07/24 09:08:36;;;;;;;11.83;6.40;;;22.20;99.90;;;;;;5118433;27;20403;-68
2023/07/24 09:11:03;;;;;;;15.13;6.25;;;22.20;99.90;;;;;;5136676;27;20058;-68
2023/07/24 09:13:29;;;;;;;13.45;6.25;;;22.10;99.90;;;;;;5119330;27;20062;-69
2023/07/24 09:15:55;;;;;;;17.08;6.18;;;22.20;99.90;;;;;;5137259;27;20086;-70
2023/07/24 09:18:22;;;;;;;13.18;5.93;;;22.20;99.90;;;;;;5118583;27;20047;-68
2023/07/24 09:20:48;;;;;;;13.93;5.68;;;22.30;99.90;;;;;;5101230;27;20051;-69
2023/07/24 09:23:15;;;;;;;13.18;6.15;;;22.40;99.90;;;;;;5135799;27;20048;-68
2023/07/24 09:25:42;;;;;;;12.02;6.03;;;22.50;99.90;;;;;;5152563;27;20047;-68
2023/07/24 09:28:15;;;;;;;17.08;6.00;;;22.60;99.90;;;;;;5118341;27;20421;-70
2023/07/24 09:30:42;;;;;;;12.80;6.22;;;22.70;99.90;;;;;;5118201;27;20479;-68
2023/07/24 09:33:08;;;;;;;13.02;6.18;;;22.80;99.90;;;;;;5116619;27;20047;-68
2023/07/24 09:35:34;;;;;;;12.73;6.05;;;22.90;99.90;;;;;;5118301;27;20451;-68
2023/07/24 09:38:08;;;;;;;14.77;6.50;;;22.90;99.90;;;;;;5118432;27;20134;-68
2023/07/24 09:40:42;;;;;;;14.18;5.88;;;22.70;99.90;;;;;;5117756;27;20050;-70
2023/07/24 09:43:38;;;;;;;13.18;6.07;;;22.40;99.90;;;;;;5118011;27;20134;-70
2023/07/24 09:46:08;;;;;;;13.75;5.72;;;22.00;99.90;;;;;;5133733;27;20054;-69
2023/07/24 09:48:35;;;;;;;12.57;6.18;;;21.90;99.90;;;;;;5136578;27;20044;-69
2023/07/24 09:51:01;;;;;;;13.65;6.35;;;21.70;99.90;;;;;;5135909;27;20047;-69
2023/07/24 09:53:39;;;;;;;13.40;6.07;;;21.50;99.90;;;;;;5135846;27;20042;-68
2023/07/24 09:56:09;;;;;;;12.60;6.05;;;21.50;99.90;;;;;;5117479;27;20476;-68
2023/07/24 09:58:38;;;;;;;13.85;6.50;;;21.50;99.90;;;;;;5135708;27;20054;-69
2023/07/24 10:01:06;;;;;;;15.10;7.20;;;21.70;99.90;;;;;;5135519;27;20538;-68
2023/07/24 10:03:47;;;;;;;15.52;6.72;;;21.90;99.90;;;;;;5135494;27;20043;-68
2023/07/24 10:06:17;;;;;;;12.57;6.60;;;22.10;99.90;;;;;;5135632;27;20047;-70
2023/07/24 10:08:43;;;;;;;15.02;7.05;;;22.20;99.90;;;;;;5100444;27;20047;-70
2023/07/24 10:11:10;;;;;;;;;;;22.50;99.90;;;;;;5118665;27;20126;-69
2023/07/24 10:13:37;;;;;;;16.08;7.10;;;22.80;99.90;;;;;;5152558;27;19919;-69
2023/07/24 10:16:06;;;;;;;12.85;6.40;;;22.80;99.90;;;;;;5135389;27;20090;-68
2023/07/24 10:18:34;;;;;;;11.57;6.25;;;22.90;99.90;;;;;;5117014;27;20079;-70
2023/07/24 10:21:02;;;;;;;13.57;6.75;;;22.90;99.90;;;;;;5116895;27;20082;-68
2023/07/24 10:23:28;;;;;;;14.52;5.63;;;23.00;99.90;;;;;;5135259;27;20496;-68
2023/07/24 10:25:54;;;;;;;12.32;5.70;;;23.00;99.90;;;;;;5116772;27;20123;-68
2023/07/24 10:28:29;;;;;;;11.87;6.00;;;23.00;99.90;;;;;;5100078;27;20079;-68
2023/07/24 10:30:56;;;;;;;12.60;6.70;;;22.90;99.90;;;;;;5117951;27;20433;-68
2023/07/24 10:33:22;;;;;;;13.32;6.47;;;22.70;99.90;;;;;;5099901;27;20039;-71
2023/07/24 10:35:54;;;;;;;12.65;5.90;;;22.60;99.90;;;;;;5134963;27;20039;-70
2023/07/24 10:38:19;;;;;;;14.68;7.03;;;22.60;99.90;;;;;;5135342;27;20054;-69
2023/07/24 10:40:48;;;;;;;14.13;6.50;;;22.60;99.90;;;;;;5116718;27;20411;-69
2023/07/24 10:43:19;;;;;;;13.98;6.38;;;22.70;99.90;;;;;;5134857;27;20107;-69
2023/07/24 10:45:53;;;;;;;14.10;6.03;;;23.00;99.90;;;;;;5116534;27;20126;-70
2023/07/24 10:48:21;;;;;;;10.07;5.05;;;23.20;99.90;;;;;;5117637;27;20074;-68
2023/07/24 10:50:49;;;;;;;13.95;5.28;;;23.40;99.90;;;;;;5135265;27;20039;-68
2023/07/24 10:53:20;;;;;;;11.57;5.00;;;23.70;99.90;;;;;;5134796;27;20482;-69
2023/07/24 10:55:47;;;;;;;10.82;4.72;;;24.00;99.90;;;;;;5116391;27;20122;-69
2023/07/24 10:58:14;;;;;;;11.52;5.07;;;24.10;99.90;;;;;;5116338;27;20058;-69
2023/07/24 11:00:41;;;;;;;10.98;4.97;;;24.20;99.90;;;;;;5134727;27;20487;-72
2023/07/24 11:03:11;;;;;;;12.23;4.55;;;24.10;99.90;;;;;;5134603;27;20051;-69
2023/07/24 11:05:44;;;;;;;9.60;4.28;;;24.00;99.90;;;;;;5134462;27;20043;-72
2023/07/24 11:08:18;;;;;;;11.05;4.90;;;24.00;99.90;;;;;;5116725;27;20051;-69
2023/07/24 11:10:52;;;;;;;9.77;3.97;;;24.00;99.90;;;;;;5134476;27;20039;-69
2023/07/24 11:13:26;;;;;;;10.40;5.18;;;24.30;99.90;;;;;;5134618;27;20100;-69
2023/07/24 11:15:53;;;;;;;12.27;5.30;;;24.40;99.90;;;;;;5099593;27;20386;-68
2023/07/24 11:18:26;;;;;;;18.10;5.38;;;24.40;99.90;;;;;;5134365;27;20051;-69
2023/07/24 11:20:56;;;;;;;11.65;4.45;;;24.50;99.90;;;;;;5134438;27;20082;-68
2023/07/24 11:23:23;;;;;;;8.05;4.70;;;24.70;99.90;;;;;;5134219;28;20479;-70
2023/07/24 11:25:52;;;;;;;11.25;4.95;;;24.90;99.90;;;;;;5134165;28;20088;-69
2023/07/24 11:28:18;;;;;;;11.77;4.70;;;25.00;99.90;;;;;;5116060;28;20126;-68
2023/07/24 11:30:44;;;;;;;12.37;4.97;;;25.00;99.90;;;;;;5134895;28;20097;-70
2023/07/24 11:33:12;;;;;;;12.33;4.50;;;24.80;99.90;;;;;;5116762;28;20288;-70
2023/07/24 11:35:40;;;;;;;11.73;4.43;;;24.60;99.90;;;;;;5116278;28;20149;-70
2023/07/24 11:38:10;;;;;;;12.48;4.68;;;24.40;99.90;;;;;;5134254;28;20043;-71
2023/07/24 11:40:41;;;;;;;15.40;4.78;;;24.20;99.90;;;;;;5134271;28;20043;-70
2023/07/24 11:43:21;;;;;;;12.77;4.78;;;24.10;99.90;;;;;;5134138;28;20076;-70
2023/07/24 11:45:51;;;;;;;14.40;5.05;;;24.00;99.90;;;;;;5115956;28;20047;-70
2023/07/24 11:48:23;;;;;;;11.13;4.82;;;24.00;99.90;;;;;;5134107;28;20058;-69
2023/07/24 11:50:54;;;;;;;11.50;5.00;;;23.90;99.90;;;;;;5134914;28;20419;-71
2023/07/24 11:53:28;;;;;;;11.95;5.43;;;23.90;99.90;;;;;;5151195;27;20051;-69
2023/07/24 11:55:56;;;;;;;14.35;5.65;;;23.90;99.90;;;;;;5134817;27;20560;-69
2023/07/24 11:58:22;;;;;;;12.13;5.88;;;24.00;99.90;;;;;;5120654;27;20054;-69
2023/07/24 12:00:51;;;;;;;12.07;5.75;;;24.00;99.90;;;;;;5119637;27;20059;-70
2023/07/24 12:03:21;;;;;;;11.98;5.40;;;24.00;99.90;;;;;;5154218;27;20055;-68
2023/07/24 12:05:47;;;;;;;12.05;5.82;;;24.00;99.90;;;;;;5102103;27;20126;-71
2023/07/24 12:08:14;;;;;;;16.03;5.87;;;24.00;99.90;;;;;;5119788;27;20202;-70
2023/07/24 12:10:40;;;;;;;;;;;23.80;99.90;;;;;;5137994;27;20291;-70
2023/07/24 12:13:06;;;;;;;11.27;5.60;;;23.80;99.90;;;;;;5119366;27;20005;-70
2023/07/24 12:15:35;;;;;;;13.60;5.28;;;23.70;99.90;;;;;;5119984;27;20043;-71
2023/07/24 12:18:04;;;;;;;10.98;5.03;;;23.80;99.90;;;;;;5137557;27;20047;-70
2023/07/24 12:20:31;;;;;;;13.35;5.55;;;23.80;99.90;;;;;;5119478;27;20051;-70
2023/07/24 12:22:57;;;;;;;13.93;5.85;;;23.90;99.90;;;;;;5138172;27;20435;-70
2023/07/24 12:25:23;;;;;;;16.20;6.47;;;23.90;99.90;;;;;;5138098;27;20371;-69
2023/07/24 12:27:49;;;;;;;14.77;5.70;;;23.90;99.90;;;;;;5137442;27;20050;-68
2023/07/24 12:30:15;;;;;;;9.17;4.90;;;23.80;99.90;;;;;;5119022;27;20047;-69
2023/07/24 12:32:41;;;;;;;10.07;5.47;;;23.80;99.90;;;;;;5137240;27;20078;-68
2023/07/24 12:35:09;;;;;;;10.90;5.30;;;23.90;99.90;;;;;;5119407;27;20043;-69
2023/07/24 12:37:34;;;;;;;13.88;5.30;;;24.00;99.90;;;;;;5119205;27;20055;-70